Time;durP1;ratioP1;P1;durP2;ratioP2;P2;SDS_P1;SDS_P2;PMS_P1;PMS_P2;Temp;Humidity;BMP_temperature;BMP_pressure;BME280_temperature;BME280_humidity;BME280_pressure;Samples;Min_cycle;Max_cycle;Signal;HPM_P1;HPM_P2
2021/01/22 00:00:44;;;;;;;4.40;0.85;;;;;;;9.78;100.00;97915.09;5050219;28;20028;-70
2021/01/22 00:03:09;;;;;;;2.72;0.50;;;;;;;9.85;100.00;97905.41;5051787;28;20111;-71
2021/01/22 00:05:35;;;;;;;6.47;0.73;;;;;;;9.78;100.00;97907.06;5050780;28;20504;-71
2021/01/22 00:08:00;;;;;;;2.50;0.70;;;;;;;9.64;100.00;97906.69;5051676;28;20040;-71
2021/01/22 00:10:28;;;;;;;2.35;0.70;;;;;;;9.73;100.00;97908.41;5050791;28;20411;-71
2021/01/22 00:12:54;;;;;;;2.65;0.38;;;;;;;9.65;100.00;97897.66;5051149;28;20067;-71
2021/01/22 00:15:19;;;;;;;3.42;0.70;;;;;;;9.65;100.00;97888.78;5053413;28;20037;-71
2021/01/22 00:17:44;;;;;;;4.10;0.80;;;;;;;9.74;100.00;97899.38;5066749;28;20020;-71
2021/01/22 00:20:10;;;;;;;3.45;0.65;;;;;;;9.75;100.00;97898.34;5067564;28;20729;-71
2021/01/22 00:22:36;;;;;;;4.20;0.80;;;;;;;9.64;100.00;97897.81;5049440;28;20134;-71
2021/01/22 00:25:02;;;;;;;6.07;0.80;;;;;;;9.75;100.00;97890.31;5048276;28;20123;-71
2021/01/22 00:27:28;;;;;;;2.20;0.70;;;;;;;9.70;100.00;97898.00;5049259;28;20097;-71
2021/01/22 00:29:53;;;;;;;1.38;0.50;;;;;;;9.74;100.00;97877.09;5065110;28;20032;-71
2021/01/22 00:32:18;;;;;;;5.45;0.60;;;;;;;9.72;100.00;97877.25;5050732;28;20036;-71
2021/01/22 00:34:44;;;;;;;2.20;0.73;;;;;;;9.73;100.00;97873.59;5051136;28;20020;-71
2021/01/22 00:37:09;;;;;;;6.32;0.70;;;;;;;9.68;100.00;97880.44;5048206;28;20036;-71
2021/01/22 00:39:35;;;;;;;5.30;1.30;;;;;;;9.75;100.00;97860.84;5048586;28;20052;-70
2021/01/22 00:42:00;;;;;;;6.15;1.00;;;;;;;9.73;100.00;97862.03;5072667;28;20032;-71
2021/01/22 00:44:27;;;;;;;3.35;0.90;;;;;;;9.66;100.00;97864.50;5064513;28;20020;-70
2021/01/22 00:46:52;;;;;;;3.83;1.15;;;;;;;9.80;100.00;97857.69;5071040;28;20048;-70
2021/01/22 00:49:18;;;;;;;4.00;0.75;;;;;;;9.77;100.00;97862.53;5065237;28;20101;-71
2021/01/22 00:51:43;;;;;;;7.70;0.95;;;;;;;9.84;100.00;97858.19;5067057;28;20047;-71
2021/01/22 00:54:09;;;;;;;6.72;1.00;;;;;;;9.80;100.00;97862.22;5077819;28;20052;-71
2021/01/22 00:56:54;;;;;;;8.82;1.33;;;;;;;9.77;100.00;97857.16;5064444;28;20036;-70
2021/01/22 00:59:19;;;;;;;5.00;0.80;;;;;;;9.82;100.00;97846.78;5080389;28;20039;-71
2021/01/22 01:01:45;;;;;;;2.50;0.68;;;;;;;9.81;100.00;97843.31;5075944;28;20072;-71
2021/01/22 01:04:10;;;;;;;4.65;1.45;;;;;;;9.87;100.00;97858.72;5077931;28;20079;-71
2021/01/22 01:06:52;;;;;;;5.15;0.68;;;;;;;9.80;100.00;97846.16;5097270;28;20036;-71
2021/01/22 01:09:17;;;;;;;4.45;0.90;;;;;;;9.95;100.00;97833.78;5081271;28;20502;-70
2021/01/22 01:12:20;;;;;;;6.30;1.20;;;;;;;9.97;100.00;97823.75;5070762;28;20043;-71
2021/01/22 01:15:14;;;;;;;2.72;0.82;;;;;;;9.94;100.00;97837.44;5086270;28;20031;-71
2021/01/22 01:17:42;;;;;;;5.93;1.10;;;;;;;10.02;100.00;97829.44;5070565;28;20032;-71
2021/01/22 01:20:08;;;;;;;6.03;1.45;;;;;;;10.02;100.00;97848.19;5079553;28;20062;-71
2021/01/22 01:22:34;;;;;;;4.45;1.00;;;;;;;10.03;100.00;97841.84;5083070;28;20035;-71
2021/01/22 01:25:00;;;;;;;3.03;0.70;;;;;;;10.08;100.00;97883.19;5091520;28;20028;-71
2021/01/22 01:27:28;;;;;;;7.50;1.00;;;;;;;9.99;100.00;97969.09;5066376;28;20032;-72
2021/01/22 01:29:54;;;;;;;7.53;0.68;;;;;;;9.27;100.00;97973.91;5064841;28;20112;-72
2021/01/22 01:32:19;;;;;;;1.95;0.75;;;;;;;9.09;100.00;97991.00;5073908;28;20035;-71
2021/01/22 01:34:44;;;;;;;4.75;0.90;;;;;;;8.78;100.00;98009.28;5091267;28;20036;-71
2021/01/22 01:37:10;;;;;;;1.40;0.90;;;;;;;8.50;100.00;98019.22;5077197;28;20441;-71
2021/01/22 01:39:35;;;;;;;1.17;0.80;;;;;;;8.23;100.00;98024.56;5071608;28;20507;-71
2021/01/22 01:42:00;;;;;;;3.05;1.25;;;;;;;8.07;100.00;98036.75;5073801;28;20044;-71
2021/01/22 01:44:27;;;;;;;2.00;1.60;;;;;;;7.94;100.00;98035.41;5072492;28;20173;-71
2021/01/22 01:46:53;;;;;;;1.60;1.30;;;;;;;7.79;100.00;98045.72;5080870;28;20120;-72
2021/01/22 01:49:18;;;;;;;2.33;1.50;;;;;;;7.77;100.00;98058.38;5079069;28;20394;-71
2021/01/22 01:51:45;;;;;;;3.30;1.70;;;;;;;7.58;100.00;98082.47;5083809;28;20070;-71
2021/01/22 01:54:10;;;;;;;1.90;1.58;;;;;;;7.52;100.00;98078.56;5075724;28;20538;-71
2021/01/22 01:56:36;;;;;;;2.22;1.70;;;;;;;7.33;100.00;98094.59;5057183;28;20029;-71
2021/01/22 01:59:02;;;;;;;3.80;1.77;;;;;;;7.17;100.00;98110.31;5086648;28;20395;-71
2021/01/22 02:01:29;;;;;;;2.83;2.05;;;;;;;6.96;100.00;98138.94;5075284;28;20510;-71
2021/01/22 02:03:56;;;;;;;2.88;1.92;;;;;;;6.78;100.00;98142.31;5077878;28;20033;-71
2021/01/22 02:06:22;;;;;;;4.65;2.10;;;;;;;6.61;100.00;98158.94;5077609;28;20201;-71
2021/01/22 02:08:48;;;;;;;4.28;2.30;;;;;;;6.51;100.00;98174.06;5075557;28;20056;-70
2021/01/22 02:11:15;;;;;;;2.58;2.30;;;;;;;6.46;100.00;98185.13;5077200;28;20039;-71
2021/01/22 02:13:44;;;;;;;3.03;2.22;;;;;;;6.31;100.00;98193.59;5075490;28;20061;-72
2021/01/22 02:16:10;;;;;;;2.03;1.52;;;;;;;6.12;100.00;98213.00;5073606;28;20039;-70
2021/01/22 02:18:36;;;;;;;2.78;1.70;;;;;;;6.07;100.00;98241.84;5069991;28;20036;-70
2021/01/22 02:21:18;;;;;;;1.88;1.60;;;;;;;6.03;100.00;98240.41;5076508;28;20118;-70
2021/01/22 02:23:45;;;;;;;2.00;1.48;;;;;;;5.77;100.00;98249.72;5069046;28;20033;-71
2021/01/22 02:26:20;;;;;;;1.58;1.23;;;;;;;5.74;100.00;98260.66;5077997;28;20032;-70
2021/01/22 02:28:51;;;;;;;4.60;1.00;;;;;;;5.66;100.00;98270.09;5079647;28;20029;-71
2021/01/22 02:31:18;;;;;;;1.13;0.95;;;;;;;5.59;100.00;98287.53;5065293;28;20040;-71
2021/01/22 02:33:46;;;;;;;1.88;1.30;;;;;;;5.58;100.00;98293.84;5080085;28;20057;-70
2021/01/22 02:36:18;;;;;;;2.33;1.52;;;;;;;5.66;100.00;98298.53;5075630;28;20039;-71
2021/01/22 02:38:46;;;;;;;2.22;1.48;;;;;;;5.63;100.00;98304.09;5074790;28;20055;-70
2021/01/22 02:41:15;;;;;;;2.08;1.38;;;;;;;5.67;100.00;98302.88;5077027;28;20093;-70
2021/01/22 02:43:42;;;;;;;1.73;1.33;;;;;;;5.66;100.00;98307.38;5070106;28;20044;-70
2021/01/22 02:46:08;;;;;;;1.77;1.50;;;;;;;5.76;100.00;98311.91;5072300;28;20525;-71
2021/01/22 02:48:33;;;;;;;2.47;1.88;;;;;;;5.67;100.00;98314.38;5073415;28;20028;-70
2021/01/22 02:50:59;;;;;;;4.28;3.13;;;;;;;5.62;100.00;98315.69;5073354;28;20024;-71
2021/01/22 02:53:24;;;;;;;7.38;3.72;;;;;;;5.56;100.00;98333.00;5071664;28;20749;-71
2021/01/22 02:55:54;;;;;;;5.93;4.32;;;;;;;5.50;100.00;98328.19;5068509;28;20024;-70
2021/01/22 02:58:31;;;;;;;5.45;4.22;;;;;;;5.46;100.00;98326.75;5085868;28;20067;-70
2021/01/22 03:01:02;;;;;;;8.25;4.68;;;;;;;5.50;100.00;98338.84;5066377;28;20041;-71
2021/01/22 03:03:56;;;;;;;6.82;5.57;;;;;;;5.39;100.00;98341.53;5064609;28;20033;-71
2021/01/22 03:06:31;;;;;;;9.23;6.40;;;;;;;5.45;100.00;98346.34;5075926;28;20040;-70
2021/01/22 03:08:59;;;;;;;7.97;6.30;;;;;;;5.47;100.00;98340.91;5077174;28;20544;-71
2021/01/22 03:11:27;;;;;;;8.23;6.72;;;;;;;5.46;100.00;98347.19;5062631;28;20498;-71
2021/01/22 03:13:53;;;;;;;7.93;6.32;;;;;;;5.41;100.00;98352.91;5075401;28;20140;-70
2021/01/22 03:16:19;;;;;;;10.48;7.03;;;;;;;5.43;100.00;98363.44;5075335;28;20483;-70
2021/01/22 03:19:01;;;;;;;9.90;6.75;;;;;;;5.37;100.00;98362.06;5072280;28;20123;-70
2021/01/22 03:21:27;;;;;;;7.97;6.47;;;;;;;5.34;100.00;98366.81;5071937;28;20511;-71
2021/01/22 03:23:52;;;;;;;6.45;5.53;;;;;;;5.47;100.00;98376.34;5073711;28;20196;-70
2021/01/22 03:26:21;;;;;;;8.18;6.03;;;;;;;5.40;100.00;98380.47;5083197;28;20055;-70
2021/01/22 03:28:47;;;;;;;8.63;6.20;;;;;;;5.31;100.00;98389.16;5086484;28;20071;-70
2021/01/22 03:31:12;;;;;;;10.05;6.43;;;;;;;5.25;100.00;98393.16;5074832;28;20502;-70
2021/01/22 03:33:38;;;;;;;9.45;6.28;;;;;;;5.29;100.00;98401.75;5073224;28;20506;-70
2021/01/22 03:36:04;;;;;;;21.17;9.07;;;;;;;5.26;100.00;98404.66;5074184;28;20028;-70
2021/01/22 03:38:30;;;;;;;7.57;6.22;;;;;;;5.28;100.00;98413.38;5081709;28;20119;-71
2021/01/22 03:40:56;;;;;;;9.45;7.63;;;;;;;5.30;100.00;98416.75;5076643;28;20103;-70
2021/01/22 03:43:21;;;;;;;8.85;7.35;;;;;;;5.20;100.00;98423.75;5072065;28;20115;-71
2021/01/22 03:45:46;;;;;;;13.38;8.30;;;;;;;5.19;100.00;98419.41;5072708;28;20444;-71
2021/01/22 03:48:12;;;;;;;12.52;8.93;;;;;;;5.18;100.00;98423.03;5075559;28;20041;-70
2021/01/22 03:50:37;;;;;;;16.40;10.27;;;;;;;5.24;100.00;98427.88;5091719;28;20032;-70
2021/01/22 03:53:02;;;;;;;15.23;10.32;;;;;;;5.22;100.00;98437.78;5071144;28;20028;-70
2021/01/22 03:55:28;;;;;;;14.23;9.82;;;;;;;5.18;100.00;98446.97;5076642;28;20035;-70
2021/01/22 03:57:53;;;;;;;15.85;10.18;;;;;;;5.13;100.00;98446.47;5068953;28;20474;-70
2021/01/22 04:00:19;;;;;;;13.63;9.30;;;;;;;5.16;100.00;98446.25;5064424;28;20154;-70
2021/01/22 04:02:44;;;;;;;15.70;9.55;;;;;;;5.18;100.00;98449.63;5069220;28;20050;-71
2021/01/22 04:05:12;;;;;;;9.73;7.50;;;;;;;5.17;100.00;98458.56;5073481;28;20127;-70
2021/01/22 04:07:38;;;;;;;13.00;8.20;;;;;;;5.17;100.00;98455.91;5075900;28;20032;-70
2021/01/22 04:10:05;;;;;;;10.98;6.80;;;;;;;5.09;100.00;98455.66;5075213;28;20043;-70
2021/01/22 04:12:30;;;;;;;10.02;6.70;;;;;;;5.05;100.00;98454.22;5066726;28;20036;-70
2021/01/22 04:14:55;;;;;;;11.25;7.10;;;;;;;5.11;100.00;98464.38;5086287;28;20035;-70
2021/01/22 04:17:21;;;;;;;41.00;15.45;;;;;;;5.06;100.00;98474.53;5067905;28;20033;-70
2021/01/22 04:19:46;;;;;;;61.25;20.48;;;;;;;5.10;100.00;98463.53;5079389;28;20574;-70
2021/01/22 04:22:12;;;;;;;86.38;30.73;;;;;;;5.00;100.00;98491.75;5067709;28;20097;-70
2021/01/22 04:24:37;;;;;;;22.63;11.60;;;;;;;5.07;100.00;98489.47;5064128;28;20071;-70
2021/01/22 04:27:03;;;;;;;26.23;13.25;;;;;;;5.01;100.00;98488.16;5066439;28;20108;-70
2021/01/22 04:29:28;;;;;;;25.92;13.20;;;;;;;5.04;100.00;98487.06;5070212;28;20043;-70
2021/01/22 04:31:54;;;;;;;15.02;7.15;;;;;;;5.09;100.00;98482.25;5069533;28;20036;-70
2021/01/22 04:34:19;;;;;;;16.95;9.90;;;;;;;5.00;100.00;98489.09;5072201;28;20134;-71
2021/01/22 04:36:44;;;;;;;20.08;8.20;;;;;;;4.99;100.00;98491.91;5071413;28;20037;-70
2021/01/22 04:39:10;;;;;;;132.25;38.35;;;;;;;5.08;100.00;98494.69;5074124;28;20046;-70
2021/01/22 04:41:35;;;;;;;21.75;9.80;;;;;;;5.15;100.00;98497.72;5073467;28;20041;-71
2021/01/22 04:44:02;;;;;;;142.18;44.20;;;;;;;5.06;100.00;98487.81;5073505;28;20052;-70
2021/01/22 04:46:32;;;;;;;72.00;28.85;;;;;;;4.93;100.00;98498.53;5075505;28;20036;-70
2021/01/22 04:48:59;;;;;;;21.42;10.85;;;;;;;4.98;100.00;98482.22;5071906;28;20515;-70
2021/01/22 04:51:25;;;;;;;21.90;9.65;;;;;;;4.94;100.00;98488.75;5080563;28;20027;-70
2021/01/22 04:53:54;;;;;;;19.90;8.35;;;;;;;4.97;100.00;98484.03;5079359;28;20028;-70
2021/01/22 04:56:24;;;;;;;43.03;17.05;;;;;;;5.07;100.00;98500.97;5073850;28;20040;-70
2021/01/22 04:58:54;;;;;;;44.97;18.25;;;;;;;5.09;100.00;98503.50;5079069;28;20054;-70
2021/01/22 05:01:21;;;;;;;18.35;9.43;;;;;;;4.98;100.00;98498.19;5078017;28;20059;-70
2021/01/22 05:03:47;;;;;;;17.55;8.68;;;;;;;5.12;100.00;98503.28;5066626;28;20507;-71
2021/01/22 05:06:14;;;;;;;11.13;6.38;;;;;;;4.94;100.00;98492.22;5073349;28;20065;-70
2021/01/22 05:08:40;;;;;;;17.58;8.32;;;;;;;4.99;100.00;98494.56;5073002;28;20098;-71
2021/01/22 05:11:06;;;;;;;30.10;13.73;;;;;;;4.93;100.00;98498.53;5075477;28;20495;-70
2021/01/22 05:13:32;;;;;;;12.75;7.32;;;;;;;5.08;100.00;98501.81;5073595;28;20444;-70
2021/01/22 05:16:11;;;;;;;25.88;9.82;;;;;;;5.13;100.00;98504.97;5069655;28;20028;-70
2021/01/22 05:18:36;;;;;;;25.20;11.15;;;;;;;5.12;100.00;98513.94;5091714;28;20129;-70
2021/01/22 05:21:10;;;;;;;17.10;8.80;;;;;;;5.09;100.00;98508.81;5063898;28;20499;-70
2021/01/22 05:23:40;;;;;;;16.60;8.75;;;;;;;5.06;100.00;98509.09;5077500;28;20426;-71
2021/01/22 05:26:13;;;;;;;15.32;8.88;;;;;;;5.08;100.00;98513.28;5077427;28;20028;-70
2021/01/22 05:28:44;;;;;;;17.90;9.75;;;;;;;5.08;100.00;98496.50;5075225;28;20036;-70
2021/01/22 05:31:11;;;;;;;21.27;10.27;;;;;;;5.02;100.00;98496.97;5076550;28;20032;-70
2021/01/22 05:33:37;;;;;;;16.33;8.40;;;;;;;5.03;100.00;98509.31;5070668;28;20159;-70
2021/01/22 05:36:22;;;;;;;17.20;9.23;;;;;;;4.96;100.00;98518.72;5076177;28;20032;-70
2021/01/22 05:38:48;;;;;;;19.52;10.43;;;;;;;4.98;100.00;98514.97;5069645;28;20066;-70
2021/01/22 05:41:13;;;;;;;20.15;9.40;;;;;;;4.95;100.00;98517.00;5078847;28;20040;-70
2021/01/22 05:43:39;;;;;;;15.15;9.27;;;;;;;4.94;100.00;98510.84;5078016;28;20073;-71
2021/01/22 05:46:12;;;;;;;20.30;9.82;;;;;;;4.88;100.00;98517.47;5078363;28;20031;-70
2021/01/22 05:48:38;;;;;;;19.35;9.15;;;;;;;5.01;100.00;98521.84;5068832;28;20040;-70
2021/01/22 05:51:03;;;;;;;16.67;8.43;;;;;;;5.01;100.00;98514.72;5071748;28;20029;-70
2021/01/22 05:53:29;;;;;;;15.10;8.45;;;;;;;4.91;100.00;98519.06;5069605;28;20040;-70
2021/01/22 05:56:14;;;;;;;15.30;8.27;;;;;;;5.01;100.00;98527.16;5079971;28;20052;-70
2021/01/22 05:58:42;;;;;;;18.40;8.07;;;;;;;5.06;100.00;98536.47;5070240;28;20059;-70
2021/01/22 06:01:09;;;;;;;18.88;8.48;;;;;;;4.93;100.00;98530.44;5073108;28;20044;-70
2021/01/22 06:03:34;;;;;;;18.85;9.40;;;;;;;5.04;100.00;98526.94;5074024;28;20044;-70
2021/01/22 06:06:00;;;;;;;19.27;9.40;;;;;;;5.04;100.00;98534.94;5071896;28;20638;-70
2021/01/22 06:08:27;;;;;;;17.80;9.25;;;;;;;4.93;100.00;98540.22;5071756;28;20043;-70
2021/01/22 06:10:53;;;;;;;16.70;8.98;;;;;;;4.94;100.00;98537.41;5067123;28;20379;-71
2021/01/22 06:13:26;;;;;;;17.90;8.82;;;;;;;5.00;100.00;98542.28;5083989;28;20410;-70
2021/01/22 06:15:57;;;;;;;14.90;7.78;;;;;;;5.05;100.00;98547.25;5060422;28;20466;-70
2021/01/22 06:18:30;;;;;;;19.13;8.05;;;;;;;5.02;100.00;98558.13;5073882;28;20383;-70
2021/01/22 06:21:13;;;;;;;14.85;7.38;;;;;;;5.06;100.00;98554.28;5074330;28;20105;-71
2021/01/22 06:23:39;;;;;;;;;;;;;;;5.02;100.00;98550.13;5072321;28;20126;-70
2021/01/22 06:26:05;;;;;;;17.65;8.30;;;;;;;5.01;100.00;98556.41;5086987;28;20405;-70
2021/01/22 06:28:31;;;;;;;17.13;9.43;;;;;;;5.05;100.00;98549.91;5073588;28;20087;-70
2021/01/22 06:30:56;;;;;;;15.75;8.18;;;;;;;5.09;100.00;98549.56;5069055;28;20040;-71
2021/01/22 06:33:23;;;;;;;16.73;8.32;;;;;;;5.10;100.00;98556.56;5078205;28;20035;-71
2021/01/22 06:35:50;;;;;;;16.48;7.95;;;;;;;5.01;100.00;98553.75;5070771;28;20424;-70
2021/01/22 06:38:20;;;;;;;16.58;7.90;;;;;;;4.97;100.00;98562.94;5074028;28;20123;-70
2021/01/22 06:40:45;;;;;;;17.67;8.70;;;;;;;5.13;100.00;98568.78;5076896;28;20384;-70
2021/01/22 06:43:11;;;;;;;13.45;7.20;;;;;;;5.03;100.00;98567.78;5069825;28;20043;-70
2021/01/22 06:45:38;;;;;;;17.38;8.13;;;;;;;5.04;100.00;98567.69;5074905;28;20047;-71
2021/01/22 06:48:06;;;;;;;18.73;7.50;;;;;;;5.02;100.00;98574.06;5085693;28;20036;-70
2021/01/22 06:50:33;;;;;;;16.42;6.82;;;;;;;5.01;100.00;98575.88;5066984;28;20119;-70
2021/01/22 06:53:05;;;;;;;22.55;8.18;;;;;;;4.99;100.00;98583.13;5069899;28;20075;-70
2021/01/22 06:55:31;;;;;;;19.15;7.45;;;;;;;5.06;100.00;98584.34;5058006;28;20095;-70
2021/01/22 06:58:29;;;;;;;21.73;8.75;;;;;;;5.07;100.00;98590.50;5066871;28;20044;-70
2021/01/22 07:00:57;;;;;;;20.50;8.25;;;;;;;5.07;100.00;98587.84;5069147;28;20054;-70
2021/01/22 07:03:37;;;;;;;20.55;7.50;;;;;;;5.08;100.00;98592.22;5061809;28;20040;-71
2021/01/22 07:06:06;;;;;;;21.35;7.38;;;;;;;5.03;100.00;98589.06;5062169;28;20414;-71
2021/01/22 07:08:55;;;;;;;21.25;8.00;;;;;;;5.10;100.00;98600.94;5073893;28;20028;-70
2021/01/22 07:11:21;;;;;;;20.45;7.47;;;;;;;5.06;100.00;98604.78;5068181;28;20051;-70
2021/01/22 07:13:46;;;;;;;15.40;6.60;;;;;;;5.11;100.00;98613.25;5071702;28;20040;-70
2021/01/22 07:16:18;;;;;;;20.45;7.80;;;;;;;5.22;100.00;98615.94;5071728;28;20037;-70
2021/01/22 07:18:44;;;;;;;19.17;7.72;;;;;;;5.23;100.00;98617.66;5067062;28;20089;-70
2021/01/22 07:21:30;;;;;;;23.80;7.60;;;;;;;5.16;100.00;98621.72;5067828;28;20044;-71
2021/01/22 07:23:58;;;;;;;22.90;7.70;;;;;;;5.20;100.00;98629.34;5068571;28;20475;-71
2021/01/22 07:26:35;;;;;;;19.30;7.78;;;;;;;5.10;100.00;98633.69;5065827;28;20043;-70
2021/01/22 07:29:16;;;;;;;18.95;7.20;;;;;;;5.18;100.00;98625.13;5067285;28;20089;-70
2021/01/22 07:31:57;;;;;;;23.98;8.93;;;;;;;5.18;100.00;98635.78;5067671;28;20039;-70
2021/01/22 07:34:42;;;;;;;16.70;7.30;;;;;;;5.12;100.00;98628.25;5068998;28;20044;-70
2021/01/22 07:37:10;;;;;;;21.08;8.05;;;;;;;5.10;100.00;98633.69;5077069;28;20082;-70
2021/01/22 07:39:36;;;;;;;21.25;8.27;;;;;;;5.13;100.00;98643.22;5071868;28;20086;-70
2021/01/22 07:42:07;;;;;;;17.30;7.60;;;;;;;5.22;100.00;98648.72;5064975;28;20104;-70
2021/01/22 07:44:33;;;;;;;19.38;8.13;;;;;;;5.25;100.00;98648.47;5076484;28;20550;-70
2021/01/22 07:46:59;;;;;;;15.93;7.53;;;;;;;5.20;100.00;98647.97;5065809;28;20072;-70
2021/01/22 07:49:24;;;;;;;16.52;8.05;;;;;;;5.10;100.00;98654.09;5070060;28;20078;-70
2021/01/22 07:51:49;;;;;;;19.83;7.95;;;;;;;5.14;100.00;98652.91;5062701;28;20082;-70
2021/01/22 07:54:15;;;;;;;18.08;7.78;;;;;;;5.12;100.00;98663.66;5067303;28;20043;-70
2021/01/22 07:56:42;;;;;;;24.98;8.45;;;;;;;5.23;100.00;98660.19;5062743;28;20399;-70
2021/01/22 07:59:11;;;;;;;19.10;8.13;;;;;;;5.20;100.00;98660.41;5067375;28;20514;-70
2021/01/22 08:01:36;;;;;;;19.10;7.68;;;;;;;5.24;100.00;98667.22;5070267;28;20047;-70
2021/01/22 08:04:02;;;;;;;16.13;7.55;;;;;;;5.28;100.00;98674.00;5065822;28;20040;-71
2021/01/22 08:06:28;;;;;;;20.55;8.15;;;;;;;5.30;100.00;98674.75;5075876;28;20032;-70
2021/01/22 08:09:09;;;;;;;23.58;7.95;;;;;;;5.24;100.00;98670.72;5071192;28;20379;-70
2021/01/22 08:11:34;;;;;;;21.58;8.60;;;;;;;5.30;100.00;98682.72;5062192;28;20104;-70
2021/01/22 08:14:01;;;;;;;18.88;8.20;;;;;;;5.27;100.00;98677.63;5075796;28;20558;-70
2021/01/22 08:16:27;;;;;;;23.00;8.88;;;;;;;5.30;100.00;98677.41;5067463;28;20036;-71
2021/01/22 08:18:53;;;;;;;22.90;8.73;;;;;;;5.23;100.00;98686.78;5068866;28;20040;-70
2021/01/22 08:21:19;;;;;;;24.63;9.25;;;;;;;5.28;100.00;98689.94;5076868;28;20195;-70
2021/01/22 08:23:47;;;;;;;19.20;7.93;;;;;;;5.27;100.00;98693.56;5066366;28;20033;-70
2021/01/22 08:26:14;;;;;;;19.98;8.13;;;;;;;5.31;100.00;98689.72;5065512;28;20122;-71
2021/01/22 08:28:40;;;;;;;20.40;7.47;;;;;;;5.48;100.00;98702.63;5074301;28;20032;-70
2021/01/22 08:31:11;;;;;;;21.88;7.78;;;;;;;5.41;100.00;98701.38;5062929;28;20023;-70
2021/01/22 08:33:37;;;;;;;28.08;9.82;;;;;;;5.50;100.00;98703.31;5072251;28;20040;-70
2021/01/22 08:36:05;;;;;;;22.05;8.80;;;;;;;5.46;100.00;98707.19;5065910;28;20040;-70
2021/01/22 08:38:30;;;;;;;26.50;9.55;;;;;;;5.41;100.00;98711.16;5076868;28;20040;-70
2021/01/22 08:40:56;;;;;;;40.03;14.65;;;;;;;5.45;100.00;98713.47;5067454;28;20032;-70
2021/01/22 08:43:21;;;;;;;65.45;23.75;;;;;;;5.53;100.00;98712.91;5062831;28;20047;-70
2021/01/22 08:46:05;;;;;;;28.58;12.40;;;;;;;5.50;100.00;98711.31;5069846;28;20463;-70
2021/01/22 08:48:30;;;;;;;28.10;11.68;;;;;;;5.59;100.00;98713.28;5062181;28;20024;-70
2021/01/22 08:51:02;;;;;;;30.15;12.13;;;;;;;5.54;100.00;98711.94;5072864;28;20029;-70
2021/01/22 08:53:28;;;;;;;24.05;9.88;;;;;;;5.53;100.00;98710.25;5102734;28;20036;-71
2021/01/22 08:56:23;;;;;;;53.90;20.23;;;;;;;5.69;100.00;98716.94;5080846;28;20540;-71
2021/01/22 08:59:17;;;;;;;31.42;13.43;;;;;;;5.72;100.00;98730.97;5057574;28;20505;-70
2021/01/22 09:01:48;;;;;;;23.83;9.00;;;;;;;5.73;100.00;98727.34;5050798;28;20422;-70
2021/01/22 09:04:24;;;;;;;20.65;8.73;;;;;;;5.59;100.00;98726.59;5066816;28;20502;-71
2021/01/22 09:06:57;;;;;;;25.38;11.65;;;;;;;5.70;100.00;98729.28;5066988;28;20035;-70
2021/01/22 09:09:35;;;;;;;;;;;;;;;5.79;100.00;98734.88;5077052;28;20544;-71
2021/01/22 09:12:28;;;;;;;55.63;19.38;;;;;;;5.90;100.00;98732.28;5066347;28;20694;-71
2021/01/22 09:14:59;;;;;;;35.17;12.00;;;;;;;5.94;100.00;98734.56;5064315;28;20063;-70
2021/01/22 09:17:24;;;;;;;49.92;17.27;;;;;;;5.93;100.00;98740.00;5075118;28;20105;-70
2021/01/22 09:19:56;;;;;;;53.53;20.25;;;;;;;5.90;100.00;98740.25;5075547;28;20471;-71
2021/01/22 09:22:22;;;;;;;34.92;12.00;;;;;;;5.94;100.00;98744.38;5096134;28;20029;-71
2021/01/22 09:24:48;;;;;;;34.50;13.85;;;;;;;5.90;100.00;98753.56;5076997;28;20024;-70
2021/01/22 09:27:13;;;;;;;24.65;11.10;;;;;;;5.89;100.00;98762.50;5074356;28;20043;-70
2021/01/22 09:29:38;;;;;;;19.95;9.70;;;;;;;6.01;100.00;98762.44;5067799;28;20062;-71
2021/01/22 09:32:07;;;;;;;32.58;14.13;;;;;;;6.01;100.00;98770.41;5064591;28;20032;-71
2021/01/22 09:34:32;;;;;;;20.23;8.00;;;;;;;6.04;100.00;98769.34;5071934;28;20045;-71
2021/01/22 09:36:59;;;;;;;28.42;10.98;;;;;;;6.05;100.00;98782.50;5074297;28;20041;-71
2021/01/22 09:39:25;;;;;;;30.95;12.70;;;;;;;6.13;100.00;98784.59;5081068;28;20286;-70
2021/01/22 09:41:50;;;;;;;27.95;12.05;;;;;;;6.21;100.00;98782.19;5077801;28;20119;-70
2021/01/22 09:44:16;;;;;;;34.75;12.40;;;;;;;6.15;100.00;98788.00;5078206;28;20085;-70
2021/01/22 09:46:41;;;;;;;15.43;7.85;;;;;;;6.18;100.00;98793.06;5072877;28;20039;-70
2021/01/22 09:49:07;;;;;;;25.23;10.23;;;;;;;6.27;100.00;98803.03;5077097;28;20064;-71
2021/01/22 09:51:32;;;;;;;25.23;8.20;;;;;;;6.26;100.00;98811.16;5078094;28;20044;-70
2021/01/22 09:53:58;;;;;;;15.55;7.10;;;;;;;6.27;100.00;98819.03;5078791;28;20051;-71
2021/01/22 09:56:23;;;;;;;19.45;7.78;;;;;;;6.27;100.00;98810.19;5047179;28;20032;-70
2021/01/22 09:58:49;;;;;;;15.73;7.15;;;;;;;6.36;100.00;98818.31;5069095;28;20036;-70
2021/01/22 10:01:14;;;;;;;19.38;7.47;;;;;;;6.41;100.00;98823.28;5072870;28;20040;-71
2021/01/22 10:03:39;;;;;;;21.15;7.55;;;;;;;6.32;100.00;98816.84;5079573;28;20036;-70
2021/01/22 10:06:07;;;;;;;19.52;8.75;;;;;;;6.41;100.00;98826.81;5087088;28;20021;-71
2021/01/22 10:08:32;;;;;;;16.67;7.28;;;;;;;6.52;100.00;98838.44;5081690;28;20036;-70
2021/01/22 10:10:58;;;;;;;14.50;6.70;;;;;;;6.49;100.00;98845.69;5070790;28;20494;-70
2021/01/22 10:13:24;;;;;;;19.75;7.57;;;;;;;6.67;100.00;98839.91;5070452;28;20033;-70
2021/01/22 10:15:49;;;;;;;14.55;7.53;;;;;;;6.69;100.00;98840.63;5061815;28;20401;-71
2021/01/22 10:18:15;;;;;;;16.80;7.88;;;;;;;6.74;100.00;98833.13;5070352;28;20177;-70
2021/01/22 10:20:40;;;;;;;17.70;7.85;;;;;;;6.75;100.00;98837.50;5092654;28;20140;-71
2021/01/22 10:23:05;;;;;;;13.93;7.57;;;;;;;6.83;100.00;98845.75;5091892;28;20449;-71
2021/01/22 10:25:31;;;;;;;22.65;9.10;;;;;;;6.77;100.00;98848.91;5067358;28;20036;-71
2021/01/22 10:27:56;;;;;;;16.00;8.40;;;;;;;6.85;100.00;98841.16;5071865;28;20040;-71
2021/01/22 10:30:22;;;;;;;13.65;7.43;;;;;;;6.74;100.00;98841.13;5066895;28;20112;-70
2021/01/22 10:32:47;;;;;;;22.48;8.00;;;;;;;6.84;100.00;98850.97;5069657;28;20577;-71
2021/01/22 10:35:13;;;;;;;15.20;8.75;;;;;;;6.96;99.99;98858.97;5086466;28;20192;-70
2021/01/22 10:37:38;;;;;;;17.10;8.40;;;;;;;7.01;100.00;98856.78;5071833;28;20040;-71
2021/01/22 10:40:04;;;;;;;21.55;10.43;;;;;;;6.94;100.00;98861.75;5074565;28;20028;-70
2021/01/22 10:42:30;;;;;;;22.45;10.05;;;;;;;6.97;100.00;98856.19;5067221;28;20265;-71
2021/01/22 10:44:55;;;;;;;23.60;9.23;;;;;;;7.13;99.81;98867.31;5069029;28;20521;-71
2021/01/22 10:47:20;;;;;;;13.82;7.97;;;;;;;7.01;100.00;98857.63;5076420;28;20035;-71
2021/01/22 10:49:46;;;;;;;15.27;7.32;;;;;;;6.98;100.00;98859.66;5073908;28;20043;-71
2021/01/22 10:52:11;;;;;;;17.65;8.07;;;;;;;7.07;100.00;98862.47;5055690;28;20489;-71
2021/01/22 10:54:37;;;;;;;15.85;7.43;;;;;;;7.06;100.00;98860.78;5073972;28;20049;-71
2021/01/22 10:57:03;;;;;;;14.85;7.72;;;;;;;7.14;98.75;98871.69;5070868;28;20071;-71
2021/01/22 10:59:29;;;;;;;20.52;7.25;;;;;;;7.05;98.77;98864.41;5070647;28;20048;-71
2021/01/22 11:01:54;;;;;;;15.65;6.50;;;;;;;7.10;99.18;98864.88;5060684;28;20036;-71
2021/01/22 11:04:19;;;;;;;11.75;5.65;;;;;;;7.19;97.45;98877.50;5075957;28;20035;-71
2021/01/22 11:06:45;;;;;;;11.95;6.70;;;;;;;7.16;96.90;98887.59;5071077;28;20570;-71
2021/01/22 11:09:10;;;;;;;15.13;5.43;;;;;;;7.18;96.60;98881.13;5075086;28;20043;-70
2021/01/22 11:11:35;;;;;;;15.02;6.10;;;;;;;7.23;95.78;98875.41;5066992;28;20033;-71
2021/01/22 11:14:01;;;;;;;14.65;6.47;;;;;;;7.12;97.57;98881.63;5062296;28;20036;-71
2021/01/22 11:16:27;;;;;;;151.57;51.00;;;;;;;7.22;95.87;98885.25;5072630;28;20072;-71
2021/01/22 11:18:52;;;;;;;18.00;10.50;;;;;;;7.26;94.51;98894.72;5059825;28;20041;-71
2021/01/22 11:21:18;;;;;;;23.80;13.20;;;;;;;7.11;93.47;98890.59;5078245;28;20040;-71
2021/01/22 11:23:43;;;;;;;18.60;9.52;;;;;;;7.09;92.84;98897.88;5067804;28;20399;-70
2021/01/22 11:26:08;;;;;;;29.08;13.82;;;;;;;6.98;93.40;98899.66;5074842;28;20059;-71
2021/01/22 11:28:34;;;;;;;17.40;7.72;;;;;;;7.03;93.98;98898.38;5071416;28;20401;-70
2021/01/22 11:31:01;;;;;;;20.02;8.10;;;;;;;7.07;94.10;98902.47;5063084;28;20093;-70